sensor_id;sensor_type;location;lat;lon;timestamp;pressure;altitude;pressure_sealevel;temperature;humidity
13456;BME280;6800;50.940;6.940;2023-05-02T00:01:11;101087.16;;;22.81;41.34
13456;BME280;6800;50.940;6.940;2023-05-02T00:05:12;101083.28;;;22.76;42.18
13456;BME280;6800;50.940;6.940;2023-05-02T00:09:13;101092.97;;;22.41;42.33
13456;BME280;6800;50.940;6.940;2023-05-02T00:13:16;101085.66;;;22.26;42.89
13456;BME280;6800;50.940;6.940;2023-05-02T00:17:18;101091.59;;;22.20;42.26
13456;BME280;6800;50.940;6.940;2023-05-02T00:21:20;101101.28;;;21.94;42.85
13456;BME280;6800;50.940;6.940;2023-05-02T00:25:21;101091.56;;;22.02;42.65
13456;BME280;6800;50.940;6.940;2023-05-02T00:29:22;101102.56;;;21.90;42.69
13456;BME280;6800;50.940;6.940;2023-05-02T00:33:24;101105.41;;;21.78;43.02
13456;BME280;6800;50.940;6.940;2023-05-02T00:37:26;101111.41;;;21.81;42.70
13456;BME280;6800;50.940;6.940;2023-05-02T00:41:28;101108.94;;;21.69;42.66
13456;BME280;6800;50.940;6.940;2023-05-02T00:45:30;101112.88;;;21.65;42.63
13456;BME280;6800;50.940;6.940;2023-05-02T00:49:31;101123.84;;;21.53;43.18
13456;BME280;6800;50.940;6.940;2023-05-02T00:53:32;101131.63;;;21.37;43.43
13456;BME280;6800;50.940;6.940;2023-05-02T00:57:35;101132.25;;;21.12;43.87
13456;BME280;6800;50.940;6.940;2023-05-02T01:02:07;101134.28;;;21.27;43.39
13456;BME280;6800;50.940;6.940;2023-05-02T01:14:41;101143.66;;;21.31;43.23
13456;BME280;6800;50.940;6.940;2023-05-02T01:18:46;101145.81;;;20.99;44.19
13456;BME280;6800;50.940;6.940;2023-05-02T01:22:48;101156.56;;;21.07;43.90
13456;BME280;6800;50.940;6.940;2023-05-02T01:31:14;101161.34;;;21.04;44.20
13456;BME280;6800;50.940;6.940;2023-05-02T01:35:17;101170.28;;;20.74;45.03
13456;BME280;6800;50.940;6.940;2023-05-02T01:39:21;101181.16;;;20.71;45.24
13456;BME280;6800;50.940;6.940;2023-05-02T01:43:24;101183.53;;;20.74;44.94
13456;BME280;6800;50.940;6.940;2023-05-02T01:47:28;101184.94;;;20.97;44.67
13456;BME280;6800;50.940;6.940;2023-05-02T01:51:34;101179.06;;;21.03;44.49
13456;BME280;6800;50.940;6.940;2023-05-02T01:55:37;101176.38;;;20.93;44.88
13456;BME280;6800;50.940;6.940;2023-05-02T01:59:42;101188.28;;;20.99;44.68
13456;BME280;6800;50.940;6.940;2023-05-02T02:03:45;101200.56;;;21.00;45.26
13456;BME280;6800;50.940;6.940;2023-05-02T02:07:47;101203.50;;;20.97;44.77
13456;BME280;6800;50.940;6.940;2023-05-02T02:11:52;101208.25;;;21.13;44.75
13456;BME280;6800;50.940;6.940;2023-05-02T02:15:59;101209.25;;;21.12;45.03
13456;BME280;6800;50.940;6.940;2023-05-02T02:20:04;101217.34;;;21.20;44.50
13456;BME280;6800;50.940;6.940;2023-05-02T02:24:08;101214.84;;;21.18;44.65
13456;BME280;6800;50.940;6.940;2023-05-02T02:28:10;101215.53;;;21.20;44.47
13456;BME280;6800;50.940;6.940;2023-05-02T02:32:12;101223.19;;;21.33;44.15
13456;BME280;6800;50.940;6.940;2023-05-02T02:36:24;101227.69;;;21.13;44.83
13456;BME280;6800;50.940;6.940;2023-05-02T02:40:43;101228.94;;;21.19;44.14
13456;BME280;6800;50.940;6.940;2023-05-02T02:53:48;101237.44;;;21.32;43.86
13456;BME280;6800;50.940;6.940;2023-05-02T03:02:21;101249.34;;;21.37;44.06
13456;BME280;6800;50.940;6.940;2023-05-02T03:06:28;101254.06;;;21.43;44.10
13456;BME280;6800;50.940;6.940;2023-05-02T03:10:29;101262.63;;;21.37;44.04
13456;BME280;6800;50.940;6.940;2023-05-02T03:14:31;101254.91;;;21.44;43.73
13456;BME280;6800;50.940;6.940;2023-05-02T03:18:32;101264.13;;;21.49;44.17
13456;BME280;6800;50.940;6.940;2023-05-02T03:22:33;101262.84;;;21.53;43.73
13456;BME280;6800;50.940;6.940;2023-05-02T03:26:35;101267.91;;;21.56;43.91
13456;BME280;6800;50.940;6.940;2023-05-02T03:30:36;101260.59;;;21.68;43.60
13456;BME280;6800;50.940;6.940;2023-05-02T03:34:40;101262.59;;;21.56;43.87
13456;BME280;6800;50.940;6.940;2023-05-02T03:38:42;101258.78;;;21.68;43.55
13456;BME280;6800;50.940;6.940;2023-05-02T03:42:43;101257.78;;;21.69;43.40
13456;BME280;6800;50.940;6.940;2023-05-02T03:46:44;101277.38;;;21.68;43.54
13456;BME280;6800;50.940;6.940;2023-05-02T03:50:46;101274.28;;;21.83;43.41
13456;BME280;6800;50.940;6.940;2023-05-02T03:54:49;101272.91;;;21.59;43.89
13456;BME280;6800;50.940;6.940;2023-05-02T03:58:50;101273.47;;;21.63;43.82
13456;BME280;6800;50.940;6.940;2023-05-02T04:02:51;101275.38;;;21.80;43.50
13456;BME280;6800;50.940;6.940;2023-05-02T04:06:53;101279.75;;;21.71;43.79
13456;BME280;6800;50.940;6.940;2023-05-02T04:10:55;101284.38;;;21.60;43.71
13456;BME280;6800;50.940;6.940;2023-05-02T04:14:56;101283.13;;;21.64;43.92
13456;BME280;6800;50.940;6.940;2023-05-02T04:18:58;101290.25;;;21.73;43.66
13456;BME280;6800;50.940;6.940;2023-05-02T04:22:59;101293.75;;;21.73;43.53
13456;BME280;6800;50.940;6.940;2023-05-02T04:27:01;101301.41;;;21.76;43.62
13456;BME280;6800;50.940;6.940;2023-05-02T04:31:02;101304.22;;;21.75;43.61
13456;BME280;6800;50.940;6.940;2023-05-02T04:35:04;101312.88;;;21.67;43.91
13456;BME280;6800;50.940;6.940;2023-05-02T04:39:06;101312.03;;;21.76;43.81
13456;BME280;6800;50.940;6.940;2023-05-02T04:43:08;101328.16;;;21.46;44.51
13456;BME280;6800;50.940;6.940;2023-05-02T04:47:09;101327.06;;;21.39;44.55
13456;BME280;6800;50.940;6.940;2023-05-02T04:51:10;101338.22;;;21.71;44.39
13456;BME280;6800;50.940;6.940;2023-05-02T04:55:16;101342.16;;;21.39;44.93
13456;BME280;6800;50.940;6.940;2023-05-02T04:59:18;101336.53;;;21.70;43.58
13456;BME280;6800;50.940;6.940;2023-05-02T05:03:20;101335.72;;;21.60;44.36
13456;BME280;6800;50.940;6.940;2023-05-02T05:07:21;101339.94;;;21.82;43.99
13456;BME280;6800;50.940;6.940;2023-05-02T05:11:23;101347.16;;;21.90;43.99
13456;BME280;6800;50.940;6.940;2023-05-02T05:15:25;101357.09;;;21.68;44.06
13456;BME280;6800;50.940;6.940;2023-05-02T05:19:27;101364.25;;;21.58;44.38
13456;BME280;6800;50.940;6.940;2023-05-02T05:23:28;101354.03;;;21.92;44.32
13456;BME280;6800;50.940;6.940;2023-05-02T05:27:30;101377.53;;;21.97;43.91
13456;BME280;6800;50.940;6.940;2023-05-02T05:31:31;101375.22;;;22.21;43.10
13456;BME280;6800;50.940;6.940;2023-05-02T05:35:33;101383.22;;;22.11;42.92
13456;BME280;6800;50.940;6.940;2023-05-02T05:39:34;101389.94;;;22.06;42.66
13456;BME280;6800;50.940;6.940;2023-05-02T05:43:35;101402.84;;;21.72;43.35
13456;BME280;6800;50.940;6.940;2023-05-02T05:47:38;101398.50;;;22.00;42.66
13456;BME280;6800;50.940;6.940;2023-05-02T05:51:40;101399.88;;;22.04;42.62
13456;BME280;6800;50.940;6.940;2023-05-02T05:55:41;101416.28;;;21.70;43.51
13456;BME280;6800;50.940;6.940;2023-05-02T05:59:43;101417.09;;;22.19;42.39
13456;BME280;6800;50.940;6.940;2023-05-02T06:03:44;101420.06;;;21.97;42.67
13456;BME280;6800;50.940;6.940;2023-05-02T06:07:46;101422.34;;;21.82;43.11
13456;BME280;6800;50.940;6.940;2023-05-02T06:11:47;101432.81;;;22.03;42.73
13456;BME280;6800;50.940;6.940;2023-05-02T06:15:49;101434.34;;;21.96;43.48
13456;BME280;6800;50.940;6.940;2023-05-02T06:19:50;101435.59;;;21.72;44.30
13456;BME280;6800;50.940;6.940;2023-05-02T06:23:52;101436.88;;;21.88;43.94
13456;BME280;6800;50.940;6.940;2023-05-02T06:27:53;101449.88;;;21.71;44.78
13456;BME280;6800;50.940;6.940;2023-05-02T06:31:55;101447.25;;;21.91;44.50
13456;BME280;6800;50.940;6.940;2023-05-02T06:35:57;101469.75;;;21.96;44.76
13456;BME280;6800;50.940;6.940;2023-05-02T06:40:02;101467.22;;;21.75;45.22
13456;BME280;6800;50.940;6.940;2023-05-02T06:44:04;101480.47;;;21.56;45.93
13456;BME280;6800;50.940;6.940;2023-05-02T06:48:06;101482.41;;;21.35;46.21
13456;BME280;6800;50.940;6.940;2023-05-02T06:52:08;101488.31;;;21.67;45.83
13456;BME280;6800;50.940;6.940;2023-05-02T06:56:09;101488.75;;;21.63;46.56
13456;BME280;6800;50.940;6.940;2023-05-02T07:00:11;101487.22;;;21.80;45.95
13456;BME280;6800;50.940;6.940;2023-05-02T07:04:13;101489.31;;;22.24;44.85
13456;BME280;6800;50.940;6.940;2023-05-02T07:08:14;101497.59;;;22.02;45.31
13456;BME280;6800;50.940;6.940;2023-05-02T07:12:15;101505.97;;;21.97;45.65
13456;BME280;6800;50.940;6.940;2023-05-02T07:16:17;101525.00;;;21.73;45.72
13456;BME280;6800;50.940;6.940;2023-05-02T07:20:18;101527.91;;;21.80;45.24
13456;BME280;6800;50.940;6.940;2023-05-02T07:24:22;101527.41;;;21.86;44.75
13456;BME280;6800;50.940;6.940;2023-05-02T07:28:24;101533.16;;;22.01;44.38
13456;BME280;6800;50.940;6.940;2023-05-02T07:32:25;101527.13;;;22.27;43.94
13456;BME280;6800;50.940;6.940;2023-05-02T07:36:27;101538.88;;;21.87;44.29
13456;BME280;6800;50.940;6.940;2023-05-02T07:40:28;101548.38;;;21.80;44.31
13456;BME280;6800;50.940;6.940;2023-05-02T07:44:31;101552.34;;;21.55;45.32
13456;BME280;6800;50.940;6.940;2023-05-02T07:48:32;101560.13;;;21.87;43.83
13456;BME280;6800;50.940;6.940;2023-05-02T07:52:34;101558.25;;;21.68;43.63
13456;BME280;6800;50.940;6.940;2023-05-02T07:56:36;101564.63;;;21.46;43.15
13456;BME280;6800;50.940;6.940;2023-05-02T08:00:37;101574.69;;;21.83;42.21
13456;BME280;6800;50.940;6.940;2023-05-02T08:04:39;101571.59;;;21.38;43.03
13456;BME280;6800;50.940;6.940;2023-05-02T08:08:41;101568.91;;;21.68;42.34
13456;BME280;6800;50.940;6.940;2023-05-02T08:12:42;101578.94;;;21.95;42.21
13456;BME280;6800;50.940;6.940;2023-05-02T08:16:43;101582.19;;;21.68;42.51
13456;BME280;6800;50.940;6.940;2023-05-02T08:20:46;101580.16;;;22.48;41.01
13456;BME280;6800;50.940;6.940;2023-05-02T08:24:48;101585.06;;;22.81;39.89
13456;BME280;6800;50.940;6.940;2023-05-02T08:28:50;101589.16;;;22.66;40.74
13456;BME280;6800;50.940;6.940;2023-05-02T08:32:52;101593.72;;;23.02;39.77
13456;BME280;6800;50.940;6.940;2023-05-02T08:36:53;101599.41;;;23.17;39.47
13456;BME280;6800;50.940;6.940;2023-05-02T08:40:59;101596.25;;;23.31;39.19
13456;BME280;6800;50.940;6.940;2023-05-02T08:45:01;101594.91;;;23.54;38.44
13456;BME280;6800;50.940;6.940;2023-05-02T08:49:04;101613.53;;;22.52;39.16
13456;BME280;6800;50.940;6.940;2023-05-02T08:53:06;101605.69;;;22.79;38.65
13456;BME280;6800;50.940;6.940;2023-05-02T08:57:08;101615.75;;;22.09;39.47
13456;BME280;6800;50.940;6.940;2023-05-02T09:01:18;101620.63;;;22.99;37.82
13456;BME280;6800;50.940;6.940;2023-05-02T09:05:22;101617.91;;;23.18;37.24
13456;BME280;6800;50.940;6.940;2023-05-02T09:09:25;101624.75;;;23.67;36.80
13456;BME280;6800;50.940;6.940;2023-05-02T09:13:30;101636.50;;;23.74;36.81
13456;BME280;6800;50.940;6.940;2023-05-02T09:17:43;101655.84;;;22.45;37.92
13456;BME280;6800;50.940;6.940;2023-05-02T09:21:45;101662.84;;;22.66;37.04
13456;BME280;6800;50.940;6.940;2023-05-02T09:25:46;101662.25;;;22.52;37.01
13456;BME280;6800;50.940;6.940;2023-05-02T09:29:48;101668.59;;;21.83;37.79
13456;BME280;6800;50.940;6.940;2023-05-02T09:33:49;101687.91;;;20.93;39.29
13456;BME280;6800;50.940;6.940;2023-05-02T09:37:55;101678.56;;;22.00;37.37
13456;BME280;6800;50.940;6.940;2023-05-02T09:41:57;101678.25;;;22.72;36.13
13456;BME280;6800;50.940;6.940;2023-05-02T09:46:07;101684.69;;;22.98;35.32
13456;BME280;6800;50.940;6.940;2023-05-02T09:50:09;101688.72;;;23.40;34.75
13456;BME280;6800;50.940;6.940;2023-05-02T09:54:34;101705.34;;;21.27;39.01
13456;BME280;6800;50.940;6.940;2023-05-02T09:58:39;101703.78;;;23.03;35.01
13456;BME280;6800;50.940;6.940;2023-05-02T10:02:41;101707.34;;;23.50;33.79
13456;BME280;6800;50.940;6.940;2023-05-02T10:06:44;101706.81;;;23.73;33.96
13456;BME280;6800;50.940;6.940;2023-05-02T10:10:52;101698.91;;;23.54;33.36
13456;BME280;6800;50.940;6.940;2023-05-02T10:14:59;101710.06;;;23.77;32.96
13456;BME280;6800;50.940;6.940;2023-05-02T10:19:06;101712.53;;;24.42;32.44
13456;BME280;6800;50.940;6.940;2023-05-02T10:23:08;101716.38;;;24.03;32.10
13456;BME280;6800;50.940;6.940;2023-05-02T10:27:10;101714.53;;;24.58;31.50
13456;BME280;6800;50.940;6.940;2023-05-02T10:31:13;101722.31;;;21.56;34.96
13456;BME280;6800;50.940;6.940;2023-05-02T10:35:16;101726.88;;;23.21;33.49
13456;BME280;6800;50.940;6.940;2023-05-02T10:39:18;101715.78;;;23.16;32.80
13456;BME280;6800;50.940;6.940;2023-05-02T10:43:27;101719.91;;;23.67;31.51
13456;BME280;6800;50.940;6.940;2023-05-02T10:47:29;101724.78;;;23.35;32.21
13456;BME280;6800;50.940;6.940;2023-05-02T10:51:33;101715.38;;;23.31;31.78
13456;BME280;6800;50.940;6.940;2023-05-02T10:55:36;101721.84;;;22.99;32.70
13456;BME280;6800;50.940;6.940;2023-05-02T10:59:39;101723.78;;;23.36;32.86
13456;BME280;6800;50.940;6.940;2023-05-02T11:03:58;101732.22;;;22.15;34.31
13456;BME280;6800;50.940;6.940;2023-05-02T11:21:27;101723.69;;;24.91;29.92
13456;BME280;6800;50.940;6.940;2023-05-02T11:25:37;101726.16;;;23.85;31.34
13456;BME280;6800;50.940;6.940;2023-05-02T11:29:53;101724.97;;;24.69;30.39
13456;BME280;6800;50.940;6.940;2023-05-02T11:33:58;101719.34;;;25.50;29.40
13456;BME280;6800;50.940;6.940;2023-05-02T11:38:02;101718.81;;;24.68;29.80
13456;BME280;6800;50.940;6.940;2023-05-02T11:42:03;101723.44;;;24.66;29.90
13456;BME280;6800;50.940;6.940;2023-05-02T11:46:05;101727.31;;;25.25;29.53
13456;BME280;6800;50.940;6.940;2023-05-02T11:50:07;101731.50;;;25.02;29.11
13456;BME280;6800;50.940;6.940;2023-05-02T11:54:18;101727.91;;;24.93;28.38
13456;BME280;6800;50.940;6.940;2023-05-02T11:58:22;101733.84;;;25.74;27.66
13456;BME280;6800;50.940;6.940;2023-05-02T12:02:40;101734.75;;;25.90;27.11
13456;BME280;6800;50.940;6.940;2023-05-02T12:06:58;101733.66;;;25.41;26.98
13456;BME280;6800;50.940;6.940;2023-05-02T12:10:59;101730.88;;;26.10;26.05
13456;BME280;6800;50.940;6.940;2023-05-02T12:15:03;101738.34;;;25.47;26.70
13456;BME280;6800;50.940;6.940;2023-05-02T12:19:05;101745.91;;;25.34;27.13
13456;BME280;6800;50.940;6.940;2023-05-02T12:23:07;101741.03;;;25.73;26.91
13456;BME280;6800;50.940;6.940;2023-05-02T12:27:14;101745.69;;;25.02;27.55
13456;BME280;6800;50.940;6.940;2023-05-02T12:31:16;101760.41;;;23.43;30.04
13456;BME280;6800;50.940;6.940;2023-05-02T12:35:21;101759.69;;;25.22;27.67
13456;BME280;6800;50.940;6.940;2023-05-02T12:39:37;101762.13;;;24.62;27.43
13456;BME280;6800;50.940;6.940;2023-05-02T12:43:45;101763.50;;;25.37;26.93
13456;BME280;6800;50.940;6.940;2023-05-02T12:47:47;101762.13;;;25.33;26.69
13456;BME280;6800;50.940;6.940;2023-05-02T12:51:52;101771.56;;;25.02;27.28
13456;BME280;6800;50.940;6.940;2023-05-02T12:56:01;101768.50;;;24.97;27.58
13456;BME280;6800;50.940;6.940;2023-05-02T13:00:03;101771.13;;;25.75;26.24
13456;BME280;6800;50.940;6.940;2023-05-02T13:04:05;101769.75;;;26.30;24.94
13456;BME280;6800;50.940;6.940;2023-05-02T13:08:07;101770.59;;;25.64;25.31
13456;BME280;6800;50.940;6.940;2023-05-02T13:12:08;101776.47;;;26.01;24.99
13456;BME280;6800;50.940;6.940;2023-05-02T13:16:10;101782.00;;;25.48;25.26
13456;BME280;6800;50.940;6.940;2023-05-02T13:20:12;101779.13;;;25.67;25.10
13456;BME280;6800;50.940;6.940;2023-05-02T13:24:13;101778.22;;;25.59;25.40
13456;BME280;6800;50.940;6.940;2023-05-02T13:28:16;101787.78;;;25.61;25.50
13456;BME280;6800;50.940;6.940;2023-05-02T13:32:17;101783.16;;;24.75;25.28
13456;BME280;6800;50.940;6.940;2023-05-02T13:36:19;101784.66;;;25.99;24.47
13456;BME280;6800;50.940;6.940;2023-05-02T13:40:21;101787.34;;;25.99;24.28
13456;BME280;6800;50.940;6.940;2023-05-02T13:44:22;101792.94;;;24.84;25.79
13456;BME280;6800;50.940;6.940;2023-05-02T13:48:23;101791.50;;;25.68;24.27
13456;BME280;6800;50.940;6.940;2023-05-02T13:52:25;101790.63;;;25.60;24.33
13456;BME280;6800;50.940;6.940;2023-05-02T13:56:26;101783.66;;;26.00;24.19
13456;BME280;6800;50.940;6.940;2023-05-02T14:00:28;101798.81;;;25.23;25.21
13456;BME280;6800;50.940;6.940;2023-05-02T14:04:29;101797.75;;;25.16;25.50
13456;BME280;6800;50.940;6.940;2023-05-02T14:08:30;101795.00;;;25.43;24.78
13456;BME280;6800;50.940;6.940;2023-05-02T14:12:32;101801.59;;;25.39;24.79
13456;BME280;6800;50.940;6.940;2023-05-02T14:16:33;101794.72;;;25.36;24.38
13456;BME280;6800;50.940;6.940;2023-05-02T14:20:36;101805.53;;;25.96;24.22
13456;BME280;6800;50.940;6.940;2023-05-02T14:24:37;101794.16;;;25.07;24.47
13456;BME280;6800;50.940;6.940;2023-05-02T14:28:38;101803.00;;;25.43;24.69
13456;BME280;6800;50.940;6.940;2023-05-02T14:32:40;101805.00;;;23.97;25.36
13456;BME280;6800;50.940;6.940;2023-05-02T14:36:42;101811.16;;;23.03;27.27
13456;BME280;6800;50.940;6.940;2023-05-02T14:40:43;101812.31;;;22.12;28.40
13456;BME280;6800;50.940;6.940;2023-05-02T14:44:45;101794.63;;;23.19;27.17
13456;BME280;6800;50.940;6.940;2023-05-02T14:48:46;101802.19;;;24.08;25.46
13456;BME280;6800;50.940;6.940;2023-05-02T14:52:47;101798.13;;;25.03;24.15
13456;BME280;6800;50.940;6.940;2023-05-02T14:56:49;101791.56;;;24.80;24.05
13456;BME280;6800;50.940;6.940;2023-05-02T15:00:52;101788.84;;;24.90;23.94
13456;BME280;6800;50.940;6.940;2023-05-02T15:04:54;101783.44;;;24.27;24.73
13456;BME280;6800;50.940;6.940;2023-05-02T15:08:56;101790.03;;;24.77;23.82
13456;BME280;6800;50.940;6.940;2023-05-02T15:12:57;101780.59;;;24.73;24.33
13456;BME280;6800;50.940;6.940;2023-05-02T15:16:59;101783.31;;;24.46;24.83
13456;BME280;6800;50.940;6.940;2023-05-02T15:21:00;101799.09;;;23.18;25.66
13456;BME280;6800;50.940;6.940;2023-05-02T15:25:02;101786.75;;;23.46;24.85
13456;BME280;6800;50.940;6.940;2023-05-02T15:29:06;101795.56;;;22.30;26.83
13456;BME280;6800;50.940;6.940;2023-05-02T15:33:07;101787.81;;;24.46;24.72
13456;BME280;6800;50.940;6.940;2023-05-02T15:37:09;101797.69;;;23.14;25.29
13456;BME280;6800;50.940;6.940;2023-05-02T15:41:11;101804.88;;;22.55;27.08
13456;BME280;6800;50.940;6.940;2023-05-02T15:45:13;101798.13;;;23.58;24.70
13456;BME280;6800;50.940;6.940;2023-05-02T15:49:14;101810.91;;;21.66;27.76
13456;BME280;6800;50.940;6.940;2023-05-02T15:53:16;101802.84;;;22.68;26.27
13456;BME280;6800;50.940;6.940;2023-05-02T15:57:17;101805.69;;;23.05;25.24
13456;BME280;6800;50.940;6.940;2023-05-02T16:01:19;101801.97;;;23.82;27.44
13456;BME280;6800;50.940;6.940;2023-05-02T16:05:24;101810.91;;;23.45;24.42
13456;BME280;6800;50.940;6.940;2023-05-02T16:09:25;101811.53;;;23.75;24.78
13456;BME280;6800;50.940;6.940;2023-05-02T16:13:28;101806.22;;;23.66;24.86
13456;BME280;6800;50.940;6.940;2023-05-02T16:17:29;101806.94;;;22.91;25.46
13456;BME280;6800;50.940;6.940;2023-05-02T16:21:31;101809.63;;;23.10;25.96
13456;BME280;6800;50.940;6.940;2023-05-02T16:25:32;101807.38;;;23.25;26.17
13456;BME280;6800;50.940;6.940;2023-05-02T16:29:34;101819.78;;;21.35;27.61
13456;BME280;6800;50.940;6.940;2023-05-02T16:33:38;101821.38;;;23.08;26.29
13456;BME280;6800;50.940;6.940;2023-05-02T16:37:40;101819.38;;;22.32;26.63
13456;BME280;6800;50.940;6.940;2023-05-02T16:41:42;101826.44;;;21.82;27.44
13456;BME280;6800;50.940;6.940;2023-05-02T16:45:43;101821.94;;;21.41;28.22
13456;BME280;6800;50.940;6.940;2023-05-02T16:49:52;101815.94;;;23.48;25.82
13456;BME280;6800;50.940;6.940;2023-05-02T16:53:53;101816.84;;;23.85;25.50
13456;BME280;6800;50.940;6.940;2023-05-02T16:57:54;101823.63;;;22.93;26.01
13456;BME280;6800;50.940;6.940;2023-05-02T17:01:56;101821.28;;;23.09;25.13
13456;BME280;6800;50.940;6.940;2023-05-02T17:05:58;101826.50;;;22.22;26.47
13456;BME280;6800;50.940;6.940;2023-05-02T17:10:01;101827.16;;;23.32;25.03
13456;BME280;6800;50.940;6.940;2023-05-02T17:14:04;101825.34;;;23.42;24.76
13456;BME280;6800;50.940;6.940;2023-05-02T17:18:06;101822.13;;;23.39;24.21
13456;BME280;6800;50.940;6.940;2023-05-02T17:22:08;101823.50;;;23.52;24.08
13456;BME280;6800;50.940;6.940;2023-05-02T17:26:09;101825.88;;;23.65;24.01
13456;BME280;6800;50.940;6.940;2023-05-02T17:30:17;101828.56;;;23.55;24.41
13456;BME280;6800;50.940;6.940;2023-05-02T17:34:18;101820.69;;;23.25;25.26
13456;BME280;6800;50.940;6.940;2023-05-02T17:38:25;101824.75;;;23.29;24.81
13456;BME280;6800;50.940;6.940;2023-05-02T17:42:27;101827.75;;;23.45;24.42
13456;BME280;6800;50.940;6.940;2023-05-02T17:46:28;101826.81;;;22.78;25.35
13456;BME280;6800;50.940;6.940;2023-05-02T17:50:35;101830.66;;;23.04;25.13
13456;BME280;6800;50.940;6.940;2023-05-02T17:54:37;101822.91;;;22.91;25.14
13456;BME280;6800;50.940;6.940;2023-05-02T17:58:38;101825.72;;;22.99;25.42
13456;BME280;6800;50.940;6.940;2023-05-02T18:02:40;101831.03;;;22.80;25.32
13456;BME280;6800;50.940;6.940;2023-05-02T18:06:41;101831.84;;;22.62;25.66
13456;BME280;6800;50.940;6.940;2023-05-02T18:10:43;101833.25;;;22.66;25.70
13456;BME280;6800;50.940;6.940;2023-05-02T18:14:44;101837.31;;;22.70;25.53
13456;BME280;6800;50.940;6.940;2023-05-02T18:18:46;101838.56;;;22.66;25.93
13456;BME280;6800;50.940;6.940;2023-05-02T18:22:47;101841.38;;;22.74;26.20
13456;BME280;6800;50.940;6.940;2023-05-02T18:26:49;101838.88;;;22.42;26.71
13456;BME280;6800;50.940;6.940;2023-05-02T18:30:50;101848.56;;;22.43;27.10
13456;BME280;6800;50.940;6.940;2023-05-02T18:34:52;101858.72;;;21.98;27.34
13456;BME280;6800;50.940;6.940;2023-05-02T18:38:54;101856.09;;;22.08;27.12
13456;BME280;6800;50.940;6.940;2023-05-02T18:42:55;101861.59;;;21.54;27.65
13456;BME280;6800;50.940;6.940;2023-05-02T18:46:57;101858.13;;;21.95;26.98
13456;BME280;6800;50.940;6.940;2023-05-02T18:50:58;101861.50;;;21.97;26.84
13456;BME280;6800;50.940;6.940;2023-05-02T18:55:00;101864.69;;;21.91;26.99
13456;BME280;6800;50.940;6.940;2023-05-02T18:59:06;101865.19;;;20.78;28.60
13456;BME280;6800;50.940;6.940;2023-05-02T19:03:07;101870.63;;;21.62;27.48
13456;BME280;6800;50.940;6.940;2023-05-02T19:07:09;101872.06;;;21.66;27.46
13456;BME280;6800;50.940;6.940;2023-05-02T19:11:11;101875.88;;;21.73;27.44
13456;BME280;6800;50.940;6.940;2023-05-02T19:15:13;101878.66;;;21.51;27.92
13456;BME280;6800;50.940;6.940;2023-05-02T19:19:14;101881.13;;;21.32;28.17
13456;BME280;6800;50.940;6.940;2023-05-02T19:23:16;101885.59;;;21.32;28.18
13456;BME280;6800;50.940;6.940;2023-05-02T19:27:21;101898.13;;;21.09;28.48
13456;BME280;6800;50.940;6.940;2023-05-02T19:31:22;101902.75;;;21.28;28.18
13456;BME280;6800;50.940;6.940;2023-05-02T19:35:23;101913.56;;;21.15;28.01
13456;BME280;6800;50.940;6.940;2023-05-02T19:39:25;101924.19;;;20.82;28.74
13456;BME280;6800;50.940;6.940;2023-05-02T19:43:28;101928.50;;;19.82;30.61
13456;BME280;6800;50.940;6.940;2023-05-02T19:47:30;101925.09;;;19.69;30.70
13456;BME280;6800;50.940;6.940;2023-05-02T19:51:32;101929.84;;;19.87;30.91
13456;BME280;6800;50.940;6.940;2023-05-02T19:55:35;101929.72;;;19.54;31.55
13456;BME280;6800;50.940;6.940;2023-05-02T19:59:36;101930.78;;;20.21;30.30
13456;BME280;6800;50.940;6.940;2023-05-02T20:03:38;101931.00;;;20.18;30.42
13456;BME280;6800;50.940;6.940;2023-05-02T20:07:39;101942.50;;;20.30;30.17
13456;BME280;6800;50.940;6.940;2023-05-02T20:11:41;101946.84;;;20.31;30.37
13456;BME280;6800;50.940;6.940;2023-05-02T20:15:43;101950.66;;;20.15;30.86
13456;BME280;6800;50.940;6.940;2023-05-02T20:19:44;101948.81;;;19.70;31.82
13456;BME280;6800;50.940;6.940;2023-05-02T20:23:46;101959.50;;;18.85;32.71
13456;BME280;6800;50.940;6.940;2023-05-02T20:27:47;101963.75;;;19.48;31.95
13456;BME280;6800;50.940;6.940;2023-05-02T20:31:49;101971.56;;;20.20;30.52
13456;BME280;6800;50.940;6.940;2023-05-02T20:35:54;101971.56;;;19.38;32.05
13456;BME280;6800;50.940;6.940;2023-05-02T20:39:55;101974.94;;;20.22;31.50
13456;BME280;6800;50.940;6.940;2023-05-02T20:43:57;101975.50;;;20.14;30.62
13456;BME280;6800;50.940;6.940;2023-05-02T20:47:58;101977.75;;;20.19;30.74
13456;BME280;6800;50.940;6.940;2023-05-02T20:52:05;101974.88;;;19.76;31.42
13456;BME280;6800;50.940;6.940;2023-05-02T20:56:06;101976.66;;;20.10;30.75
13456;BME280;6800;50.940;6.940;2023-05-02T21:00:08;101981.00;;;19.17;32.43
13456;BME280;6800;50.940;6.940;2023-05-02T21:04:11;101976.28;;;19.33;31.85
13456;BME280;6800;50.940;6.940;2023-05-02T21:08:13;101991.41;;;19.07;32.72
13456;BME280;6800;50.940;6.940;2023-05-02T21:12:15;101986.81;;;19.58;31.43
13456;BME280;6800;50.940;6.940;2023-05-02T21:16:19;101992.16;;;19.45;32.09
13456;BME280;6800;50.940;6.940;2023-05-02T21:20:20;101981.31;;;19.61;31.63
13456;BME280;6800;50.940;6.940;2023-05-02T21:24:22;101985.53;;;19.27;31.86
13456;BME280;6800;50.940;6.940;2023-05-02T21:28:41;101985.28;;;19.43;31.96
13456;BME280;6800;50.940;6.940;2023-05-02T21:32:53;101999.09;;;18.61;33.26
13456;BME280;6800;50.940;6.940;2023-05-02T21:36:55;101989.13;;;19.39;32.07
13456;BME280;6800;50.940;6.940;2023-05-02T21:41:00;101994.13;;;19.18;32.54
13456;BME280;6800;50.940;6.940;2023-05-02T21:45:02;101994.72;;;18.86;32.79
13456;BME280;6800;50.940;6.940;2023-05-02T21:49:03;102008.19;;;18.70;33.18
13456;BME280;6800;50.940;6.940;2023-05-02T21:53:05;102004.84;;;19.17;32.50
13456;BME280;6800;50.940;6.940;2023-05-02T21:57:06;102009.50;;;18.25;33.71
13456;BME280;6800;50.940;6.940;2023-05-02T22:01:08;102006.44;;;19.07;32.33
13456;BME280;6800;50.940;6.940;2023-05-02T22:05:09;102013.78;;;18.53;32.67